Terminal Aerodrome Forecast
Issued by NWS

Home | Current Version | Previous Version | Text Only | Print | Product List | Glossary Off
Versions: 1 2 3 4 5 6 7 8 9 10 11 12 13

312
FTUS41 KCLE 212335
TAFFDY
TAF
KFDY 212335Z 2200/2224 28012G22KT P6SM -SHRA OVC035
      TEMPO 2200/2203 -SHRA OVC025
     FM220300 30010G20KT P6SM BKN050
     FM220600 30010KT P6SM SCT050
     FM221400 31008KT P6SM SCT250=

USA.gov is the U.S. government's official web portal to all federal, state and local government web resources and services.